createdAt,value
2023-03-16T00:01:26.858Z,0.10
2023-03-16T00:03:56.095Z,0.20
2023-03-16T00:06:25.726Z,0.20
2023-03-16T00:08:58.787Z,0.10
2023-03-16T00:11:26.901Z,0.00
2023-03-16T00:13:55.299Z,0.00
2023-03-16T00:16:23.374Z,0.00
2023-03-16T00:18:51.255Z,-0.10
2023-03-16T00:21:21.189Z,-0.20
2023-03-16T00:23:49.089Z,-0.20
2023-03-16T00:26:17.015Z,-0.20
2023-03-16T00:28:44.936Z,-0.30
2023-03-16T00:31:13.629Z,-0.20
2023-03-16T00:33:46.552Z,-0.20
2023-03-16T00:36:14.571Z,-0.10
2023-03-16T00:38:45.504Z,-0.10
2023-03-16T00:41:15.664Z,-0.10
2023-03-16T00:43:45.467Z,-0.10
2023-03-16T00:46:17.601Z,-0.10
2023-03-16T00:48:48.005Z,0.00
2023-03-16T00:51:18.322Z,0.00
2023-03-16T00:53:48.286Z,0.00
2023-03-16T00:56:17.390Z,0.00
2023-03-16T00:58:45.506Z,0.10
2023-03-16T01:01:16.233Z,-0.10
2023-03-16T01:03:44.305Z,-0.30
2023-03-16T01:06:16.980Z,-0.20
2023-03-16T01:08:47.251Z,-0.20
2023-03-16T01:11:18.517Z,-0.10
2023-03-16T01:13:47.926Z,-0.10
2023-03-16T01:16:18.826Z,-0.20
2023-03-16T01:18:47.722Z,-0.30
2023-03-16T01:21:15.688Z,-0.30
2023-03-16T01:23:44.168Z,-0.30
2023-03-16T01:26:17.005Z,-0.30
2023-03-16T01:28:45.636Z,-0.30
2023-03-16T01:31:15.744Z,-0.40
2023-03-16T01:33:44.861Z,-0.30
2023-03-16T01:36:19.355Z,-0.30
2023-03-16T01:39:01.065Z,-0.20
2023-03-16T01:41:35.157Z,-0.20
2023-03-16T01:44:03.179Z,-0.20
2023-03-16T01:46:33.558Z,-0.20
2023-03-16T01:49:09.380Z,-0.10
2023-03-16T01:51:44.192Z,-0.30
2023-03-16T01:54:25.224Z,-0.40
2023-03-16T01:57:04.586Z,-0.40
2023-03-16T01:59:38.541Z,-0.40
2023-03-16T02:02:07.488Z,-0.50
2023-03-16T02:04:49.459Z,-0.70
2023-03-16T02:07:26.107Z,-0.70
2023-03-16T02:09:59.100Z,-0.50
2023-03-16T02:12:29.196Z,-0.60
2023-03-16T02:14:59.565Z,-0.50
2023-03-16T02:17:31.940Z,-0.50
2023-03-16T02:20:22.823Z,-0.60
2023-03-16T02:22:54.147Z,-0.50
2023-03-16T02:25:26.055Z,-0.60
2023-03-16T02:28:05.168Z,-0.50
2023-03-16T02:30:37.346Z,-0.50
2023-03-16T02:33:06.637Z,-0.70
2023-03-16T02:35:35.433Z,-0.60
2023-03-16T02:38:04.809Z,-0.70
2023-03-16T02:40:38.985Z,-0.60
2023-03-16T02:43:16.371Z,-0.80
2023-03-16T02:45:56.358Z,-0.70
2023-03-16T02:48:36.109Z,-0.80
2023-03-16T02:51:05.130Z,-0.90
2023-03-16T02:53:33.674Z,-1.00
2023-03-16T02:56:03.360Z,-1.10
2023-03-16T02:58:34.372Z,-1.20
2023-03-16T03:01:07.563Z,-1.10
2023-03-16T03:03:36.433Z,-1.10
2023-03-16T03:06:06.343Z,-1.10
2023-03-16T03:08:37.338Z,-1.10
2023-03-16T03:11:05.958Z,-1.10
2023-03-16T03:13:33.858Z,-1.00
2023-03-16T03:16:02.052Z,-1.00
2023-03-16T03:18:31.525Z,-1.10
2023-03-16T03:20:59.522Z,-1.10
2023-03-16T03:23:27.446Z,-1.10
2023-03-16T03:25:59.213Z,-1.10
2023-03-16T03:28:27.962Z,-1.00
2023-03-16T03:30:56.017Z,-1.00
2023-03-16T03:33:24.254Z,-1.00
2023-03-16T03:35:58.620Z,-1.00
2023-03-16T03:38:29.843Z,-0.90
2023-03-16T03:41:00.369Z,-1.00
2023-03-16T03:43:31.961Z,-1.20
2023-03-16T03:46:02.413Z,-1.10
2023-03-16T03:48:33.646Z,-1.10
2023-03-16T03:51:03.499Z,-1.00
2023-03-16T03:53:37.256Z,-1.10
2023-03-16T03:56:25.555Z,-1.20
2023-03-16T03:58:53.912Z,-1.20
2023-03-16T04:01:44.864Z,-1.20
2023-03-16T04:04:12.920Z,-1.30
2023-03-16T04:06:42.609Z,-1.20
2023-03-16T04:09:11.415Z,-1.10
2023-03-16T04:11:40.372Z,-1.00
2023-03-16T04:14:08.307Z,-1.20
2023-03-16T04:16:39.687Z,-1.20
2023-03-16T04:19:07.886Z,-1.30
2023-03-16T04:21:35.827Z,-1.40
2023-03-16T04:24:05.794Z,-1.50
2023-03-16T04:26:36.836Z,-1.50
2023-03-16T04:29:05.779Z,-1.60
2023-03-16T04:31:35.375Z,-1.60
2023-03-16T04:34:03.719Z,-1.50
2023-03-16T04:36:32.952Z,-1.40
2023-03-16T04:39:04.658Z,-1.40
2023-03-16T04:41:34.634Z,-1.60
2023-03-16T04:44:17.280Z,-1.60
2023-03-16T04:46:45.327Z,-1.60
2023-03-16T04:49:14.130Z,-1.60
2023-03-16T04:51:45.168Z,-1.70
2023-03-16T04:54:16.536Z,-1.70
2023-03-16T04:56:46.614Z,-1.80
2023-03-16T04:59:36.041Z,-1.80
2023-03-16T05:02:33.269Z,-1.80
2023-03-16T05:05:03.667Z,-1.80
2023-03-16T05:07:32.377Z,-1.80
2023-03-16T05:10:00.443Z,-1.90
2023-03-16T05:12:29.730Z,-1.90
2023-03-16T05:15:02.416Z,-1.90
2023-03-16T05:17:37.334Z,-1.90
2023-03-16T05:20:08.356Z,-1.90
2023-03-16T05:22:42.841Z,-2.00
2023-03-16T05:25:21.270Z,-2.00
2023-03-16T05:27:54.873Z,-2.10
2023-03-16T05:30:35.117Z,-2.10
2023-03-16T05:33:06.642Z,-2.00
2023-03-16T05:35:35.965Z,-2.00
2023-03-16T05:38:08.647Z,-2.00
2023-03-16T05:40:39.723Z,-2.00
2023-03-16T05:43:17.499Z,-2.00
2023-03-16T05:45:50.657Z,-2.00
2023-03-16T05:48:21.141Z,-2.10
2023-03-16T05:50:54.392Z,-2.10
2023-03-16T05:53:29.352Z,-2.10
2023-03-16T05:56:04.236Z,-2.10
2023-03-16T05:58:35.961Z,-2.10
2023-03-16T06:01:09.535Z,-2.10
2023-03-16T06:03:37.603Z,-2.00
2023-03-16T06:06:07.616Z,-1.90
2023-03-16T06:08:44.294Z,-1.90
2023-03-16T06:11:13.621Z,-1.80
2023-03-16T06:13:44.231Z,-1.80
2023-03-16T06:16:14.278Z,-1.80
2023-03-16T06:18:42.444Z,-1.80
2023-03-16T06:21:11.185Z,-1.70
2023-03-16T06:23:40.004Z,-1.60
2023-03-16T06:26:09.984Z,-1.60
2023-03-16T06:28:47.526Z,-1.60
2023-03-16T06:31:15.793Z,-1.60
2023-03-16T06:33:46.556Z,-1.60
2023-03-16T06:36:14.994Z,-1.60
2023-03-16T06:38:47.967Z,-1.50
2023-03-16T06:41:43.035Z,-1.50
2023-03-16T06:44:14.888Z,-1.40
2023-03-16T06:46:53.422Z,-1.30
2023-03-16T06:49:21.402Z,-1.30
2023-03-16T06:51:49.941Z,-1.30
2023-03-16T06:54:18.014Z,-1.20
2023-03-16T06:56:46.512Z,-1.20
2023-03-16T06:59:16.498Z,-1.10
2023-03-16T07:01:45.045Z,-1.00
2023-03-16T07:04:13.615Z,-0.90
2023-03-16T07:06:42.967Z,-0.90
2023-03-16T07:09:12.494Z,-0.70
2023-03-16T07:11:41.201Z,-0.70
2023-03-16T07:14:09.182Z,-0.70
2023-03-16T07:16:39.116Z,-0.60
2023-03-16T07:19:09.900Z,-0.50
2023-03-16T07:21:40.066Z,-0.50
2023-03-16T07:24:13.596Z,-0.40
2023-03-16T07:26:43.173Z,-0.40
2023-03-16T07:29:13.918Z,-0.30
2023-03-16T07:31:44.215Z,-0.20
2023-03-16T07:34:18.189Z,-0.20
2023-03-16T07:36:52.669Z,-0.10
2023-03-16T07:39:21.666Z,-0.10
2023-03-16T07:41:52.066Z,0.00
2023-03-16T07:44:32.678Z,0.10
2023-03-16T07:47:02.429Z,0.10
2023-03-16T07:49:32.340Z,0.20
2023-03-16T07:52:02.818Z,0.30
2023-03-16T07:54:39.044Z,0.30
2023-03-16T07:57:09.342Z,0.40
2023-03-16T07:59:43.828Z,0.50
2023-03-16T08:02:18.950Z,0.60
2023-03-16T08:04:47.550Z,0.60
2023-03-16T08:07:17.235Z,0.70
2023-03-16T08:10:17.986Z,0.80
2023-03-16T08:12:59.089Z,0.80
2023-03-16T08:15:27.637Z,0.90
2023-03-16T08:18:04.658Z,1.00
2023-03-16T08:20:32.969Z,1.00
2023-03-16T08:23:01.477Z,1.10
2023-03-16T08:25:36.841Z,1.00
2023-03-16T08:28:10.779Z,1.00
2023-03-16T08:30:46.802Z,1.10
2023-03-16T08:33:36.664Z,1.10
2023-03-16T08:36:08.547Z,1.20
2023-03-16T08:38:36.985Z,1.20
2023-03-16T08:41:09.815Z,1.20
2023-03-16T08:43:38.158Z,1.30
2023-03-16T08:46:06.908Z,1.40
2023-03-16T08:48:52.710Z,1.50
2023-03-16T08:51:20.715Z,1.60
2023-03-16T08:53:48.806Z,1.60
2023-03-16T08:56:16.805Z,1.70
2023-03-16T08:58:46.053Z,1.80
2023-03-16T09:01:17.406Z,1.90
2023-03-16T09:03:46.671Z,2.00
2023-03-16T09:06:18.061Z,2.00
2023-03-16T09:08:47.707Z,2.20
2023-03-16T09:11:18.789Z,2.30
2023-03-16T09:13:47.312Z,2.40
2023-03-16T09:16:17.016Z,2.50
2023-03-16T09:18:45.056Z,2.50
2023-03-16T09:21:14.820Z,2.60
2023-03-16T09:23:44.068Z,2.80
2023-03-16T09:26:14.830Z,2.80
2023-03-16T09:28:43.771Z,2.90
2023-03-16T09:31:18.944Z,3.00
2023-03-16T09:33:48.066Z,2.90
2023-03-16T09:36:17.719Z,3.00
2023-03-16T09:38:45.895Z,3.10
2023-03-16T09:41:35.084Z,3.10
2023-03-16T09:44:22.629Z,3.20
2023-03-16T09:46:52.627Z,3.20
2023-03-16T09:49:25.922Z,3.40
2023-03-16T09:52:06.155Z,3.50
2023-03-16T09:54:44.390Z,3.60
2023-03-16T09:57:25.143Z,3.70
2023-03-16T09:59:54.053Z,3.90
2023-03-16T10:02:49.671Z,4.00
2023-03-16T10:05:22.893Z,4.10
2023-03-16T10:08:09.219Z,4.20
2023-03-16T10:10:56.764Z,4.30
2023-03-16T10:13:36.846Z,4.50
2023-03-16T10:16:11.747Z,4.30
2023-03-16T10:18:45.977Z,4.50
2023-03-16T10:21:16.954Z,4.50
2023-03-16T10:23:48.656Z,4.50
2023-03-16T10:26:23.945Z,4.50
2023-03-16T10:28:52.912Z,4.60
2023-03-16T10:31:24.402Z,4.60
2023-03-16T10:34:02.058Z,4.80
2023-03-16T10:36:34.874Z,4.80
2023-03-16T10:39:08.193Z,4.90
2023-03-16T10:41:39.347Z,5.00
2023-03-16T10:44:13.594Z,5.10
2023-03-16T10:46:46.101Z,5.20
2023-03-16T10:49:25.540Z,5.20
2023-03-16T10:51:55.644Z,5.40
2023-03-16T10:54:31.966Z,5.40
2023-03-16T10:57:01.172Z,5.50
2023-03-16T10:59:34.346Z,5.60
2023-03-16T11:02:12.642Z,5.70
2023-03-16T11:04:40.796Z,5.70
2023-03-16T11:07:11.151Z,5.80
2023-03-16T11:09:40.569Z,5.80
2023-03-16T11:12:17.258Z,6.10
2023-03-16T11:14:46.937Z,6.40
2023-03-16T11:17:20.063Z,6.80
2023-03-16T11:19:55.437Z,6.80
2023-03-16T11:22:26.300Z,6.80
2023-03-16T11:25:09.731Z,6.80
2023-03-16T11:27:46.937Z,6.90
2023-03-16T11:30:24.318Z,7.10
2023-03-16T11:32:54.522Z,7.30
2023-03-16T11:35:35.255Z,7.40
2023-03-16T11:38:15.330Z,7.60
2023-03-16T11:40:57.611Z,7.70
2023-03-16T11:43:55.332Z,8.20
2023-03-16T11:46:27.422Z,8.20
2023-03-16T11:49:15.569Z,8.20
2023-03-16T11:51:49.654Z,8.40
2023-03-16T11:54:52.386Z,8.60
2023-03-16T11:57:38.922Z,8.60
2023-03-16T12:00:25.647Z,8.70
2023-03-16T12:03:25.322Z,8.80
2023-03-16T12:06:16.938Z,9.00
2023-03-16T12:09:17.935Z,9.20
2023-03-16T12:11:56.305Z,9.30
2023-03-16T12:14:33.858Z,9.00
2023-03-16T12:17:08.428Z,9.10
2023-03-16T12:19:52.035Z,9.40
2023-03-16T12:22:24.405Z,9.50
2023-03-16T12:24:53.260Z,9.50
2023-03-16T12:27:27.707Z,9.70
2023-03-16T12:30:20.507Z,9.70
2023-03-16T12:32:58.361Z,9.80
2023-03-16T12:35:42.231Z,9.70
2023-03-16T12:38:40.644Z,9.50
2023-03-16T12:41:27.193Z,9.20
2023-03-16T12:44:16.205Z,9.20
2023-03-16T12:47:00.536Z,9.50
2023-03-16T12:49:33.869Z,9.80
2023-03-16T12:52:05.392Z,10.00
2023-03-16T12:54:34.363Z,10.20
2023-03-16T12:57:06.603Z,10.20
2023-03-16T12:59:41.645Z,10.40
2023-03-16T13:02:19.533Z,10.50
2023-03-16T13:04:55.405Z,10.60
2023-03-16T13:07:27.046Z,10.40
2023-03-16T13:10:01.742Z,10.50
2023-03-16T13:12:36.845Z,10.50
2023-03-16T13:15:29.559Z,10.10
2023-03-16T13:18:25.189Z,10.20
2023-03-16T13:21:00.841Z,10.00
2023-03-16T13:23:49.581Z,10.10
2023-03-16T13:26:23.183Z,10.00
2023-03-16T13:28:55.963Z,9.80
2023-03-16T13:31:37.081Z,10.00
2023-03-16T13:34:13.253Z,10.00
2023-03-16T13:36:43.092Z,10.10
2023-03-16T13:39:18.720Z,10.10
2023-03-16T13:42:01.171Z,9.90
2023-03-16T13:44:31.266Z,10.00
2023-03-16T13:47:05.015Z,10.20
2023-03-16T13:49:34.601Z,10.10
2023-03-16T13:52:05.916Z,10.00
2023-03-16T13:54:33.950Z,10.10
2023-03-16T13:57:07.259Z,9.90
2023-03-16T13:59:35.954Z,9.40
2023-03-16T14:02:04.104Z,9.60
2023-03-16T14:04:34.990Z,9.40
2023-03-16T14:07:04.934Z,9.60
2023-03-16T14:09:36.284Z,9.60
2023-03-16T14:12:04.848Z,9.10
2023-03-16T14:14:41.129Z,9.00
2023-03-16T14:17:14.915Z,9.20
2023-03-16T14:19:48.771Z,9.10
2023-03-16T14:22:20.890Z,9.00
2023-03-16T14:24:56.902Z,8.90
2023-03-16T14:27:32.768Z,8.80
2023-03-16T14:30:10.251Z,8.80
2023-03-16T14:32:38.353Z,8.90
2023-03-16T14:35:18.215Z,8.70
2023-03-16T14:37:46.629Z,8.50
2023-03-16T14:40:27.096Z,8.50
2023-03-16T14:42:58.562Z,8.50
2023-03-16T14:45:33.172Z,8.50
2023-03-16T14:48:08.829Z,8.70
2023-03-16T14:50:38.353Z,8.70
2023-03-16T14:53:06.799Z,8.90
2023-03-16T14:55:34.895Z,9.00
2023-03-16T14:58:02.809Z,8.90
2023-03-16T15:00:37.106Z,8.90
2023-03-16T15:03:16.180Z,8.90
2023-03-16T15:05:50.722Z,8.90
2023-03-16T15:08:26.306Z,9.00
2023-03-16T15:10:56.142Z,8.80
2023-03-16T15:13:52.451Z,8.90
2023-03-16T15:16:22.969Z,8.90
2023-03-16T15:18:51.843Z,8.70
2023-03-16T15:21:26.976Z,8.70
2023-03-16T15:23:58.469Z,8.40
2023-03-16T15:26:29.652Z,8.30
2023-03-16T15:28:58.772Z,8.40
2023-03-16T15:31:26.843Z,8.40
2023-03-16T15:33:54.828Z,8.40
2023-03-16T15:36:24.818Z,8.40
2023-03-16T15:38:55.616Z,8.30
2023-03-16T15:41:26.916Z,8.30
2023-03-16T15:44:03.564Z,8.40
2023-03-16T15:46:31.661Z,8.40
2023-03-16T15:48:59.630Z,8.20
2023-03-16T15:51:31.260Z,8.20
2023-03-16T15:54:02.576Z,8.30
2023-03-16T15:56:44.053Z,8.20
2023-03-16T15:59:19.212Z,8.10
2023-03-16T16:01:48.901Z,8.00
2023-03-16T16:04:20.231Z,8.00
2023-03-16T16:06:51.672Z,7.90
2023-03-16T16:09:19.741Z,7.90
2023-03-16T16:11:48.965Z,8.00
2023-03-16T16:14:20.111Z,7.90
2023-03-16T16:16:48.132Z,7.90
2023-03-16T16:19:18.773Z,7.90
2023-03-16T16:21:47.923Z,8.00
2023-03-16T16:24:18.209Z,8.00
2023-03-16T16:26:54.105Z,8.00
2023-03-16T16:29:25.777Z,8.10
2023-03-16T16:31:54.272Z,8.00
2023-03-16T16:34:25.293Z,8.00
2023-03-16T16:36:54.034Z,7.90
2023-03-16T16:39:23.588Z,7.90
2023-03-16T16:41:56.268Z,7.90
2023-03-16T16:44:27.846Z,7.90
2023-03-16T16:46:56.243Z,7.80
2023-03-16T16:49:28.165Z,7.80
2023-03-16T16:51:57.289Z,7.70
2023-03-16T16:54:31.042Z,7.60
2023-03-16T16:57:01.245Z,7.60
2023-03-16T16:59:33.663Z,7.50
2023-03-16T17:02:03.435Z,7.40
2023-03-16T17:04:31.796Z,7.40
2023-03-16T17:07:02.639Z,7.40
2023-03-16T17:09:31.923Z,7.40
2023-03-16T17:12:01.861Z,7.40
2023-03-16T17:14:31.246Z,7.40
2023-03-16T17:17:03.181Z,7.30
2023-03-16T17:19:31.569Z,7.40
2023-03-16T17:21:59.663Z,7.30
2023-03-16T17:24:28.708Z,7.20
2023-03-16T17:27:02.134Z,7.20
2023-03-16T17:29:34.137Z,7.10
2023-03-16T17:32:05.016Z,7.00
2023-03-16T17:34:35.307Z,7.10
2023-03-16T17:37:03.558Z,7.00
2023-03-16T17:39:34.753Z,7.00
2023-03-16T17:42:07.760Z,6.90
2023-03-16T17:44:41.581Z,6.90
2023-03-16T17:47:16.356Z,6.80
2023-03-16T17:49:48.527Z,6.80
2023-03-16T17:52:19.149Z,6.70
2023-03-16T17:54:49.443Z,6.70
2023-03-16T17:57:22.347Z,6.60
2023-03-16T17:59:50.497Z,6.60
2023-03-16T18:02:40.386Z,6.60
2023-03-16T18:05:19.155Z,6.60
2023-03-16T18:07:47.814Z,6.50
2023-03-16T18:10:18.025Z,6.50
2023-03-16T18:12:50.347Z,6.50
2023-03-16T18:15:20.106Z,6.50
2023-03-16T18:17:49.598Z,6.40
2023-03-16T18:20:27.642Z,6.40
2023-03-16T18:22:56.253Z,6.40
2023-03-16T18:25:35.213Z,6.40
2023-03-16T18:28:07.748Z,6.30
2023-03-16T18:30:37.776Z,6.30
2023-03-16T18:33:08.660Z,6.20
2023-03-16T18:35:38.437Z,6.20
2023-03-16T18:38:18.616Z,6.10
2023-03-16T18:40:47.535Z,6.10
2023-03-16T18:43:18.153Z,6.00
2023-03-16T18:45:47.251Z,6.00
2023-03-16T18:48:24.769Z,5.90
2023-03-16T18:50:53.118Z,5.90
2023-03-16T18:53:22.325Z,5.80
2023-03-16T18:55:50.430Z,5.80
2023-03-16T18:58:22.698Z,5.80
2023-03-16T19:00:55.775Z,5.70
2023-03-16T19:03:27.975Z,5.70
2023-03-16T19:05:58.537Z,5.70
2023-03-16T19:08:29.494Z,5.70
2023-03-16T19:11:02.205Z,5.70
2023-03-16T19:13:31.679Z,5.70
2023-03-16T19:16:00.752Z,5.60
2023-03-16T19:18:29.340Z,5.60
2023-03-16T19:20:57.755Z,5.60
2023-03-16T19:23:31.282Z,5.50
2023-03-16T19:26:00.637Z,5.50
2023-03-16T19:28:34.183Z,5.50
2023-03-16T19:31:06.151Z,5.50
2023-03-16T19:33:34.268Z,5.50
2023-03-16T19:36:02.520Z,5.50
2023-03-16T19:38:30.848Z,5.50
2023-03-16T19:41:00.997Z,5.40
2023-03-16T19:43:31.016Z,5.40
2023-03-16T19:45:59.025Z,5.40
2023-03-16T19:48:33.775Z,5.40
2023-03-16T19:51:02.412Z,5.30
2023-03-16T19:53:30.409Z,5.30
2023-03-16T19:55:58.433Z,5.30
2023-03-16T19:58:36.738Z,5.30
2023-03-16T20:01:06.483Z,5.30
2023-03-16T20:03:37.408Z,5.30
2023-03-16T20:06:05.882Z,5.20
2023-03-16T20:08:33.893Z,5.20
2023-03-16T20:11:07.259Z,5.20
2023-03-16T20:13:37.161Z,5.20
2023-03-16T20:16:05.804Z,5.20
2023-03-16T20:18:34.260Z,5.20
2023-03-16T20:21:02.705Z,5.20
2023-03-16T20:23:32.670Z,5.20
2023-03-16T20:26:03.227Z,5.20
2023-03-16T20:28:37.347Z,5.10
2023-03-16T20:31:09.182Z,5.10
2023-03-16T20:33:37.252Z,5.10
2023-03-16T20:36:07.098Z,5.10
2023-03-16T20:38:35.044Z,5.00
2023-03-16T20:41:03.142Z,5.00
2023-03-16T20:43:33.307Z,5.00
2023-03-16T20:46:04.836Z,5.00
2023-03-16T20:48:34.159Z,5.00
2023-03-16T20:51:02.238Z,5.00
2023-03-16T20:53:30.285Z,5.00
2023-03-16T20:55:58.299Z,4.90
2023-03-16T20:58:29.180Z,5.00
2023-03-16T21:00:58.169Z,5.00
2023-03-16T21:03:30.299Z,5.00
2023-03-16T21:06:00.109Z,4.90
2023-03-16T21:08:28.758Z,4.90
2023-03-16T21:10:59.269Z,4.90
2023-03-16T21:13:31.639Z,4.90
2023-03-16T21:16:03.498Z,4.90
2023-03-16T21:18:33.063Z,4.90
2023-03-16T21:21:01.814Z,4.80
2023-03-16T21:23:29.765Z,4.90
2023-03-16T21:26:03.112Z,4.80
2023-03-16T21:28:35.466Z,4.80
2023-03-16T21:31:03.798Z,4.80
2023-03-16T21:33:35.993Z,4.80
2023-03-16T21:36:08.123Z,4.70
2023-03-16T21:38:36.223Z,4.70
2023-03-16T21:41:04.634Z,4.70
2023-03-16T21:43:32.653Z,4.70
2023-03-16T21:46:00.979Z,4.70
2023-03-16T21:48:37.735Z,4.70
2023-03-16T21:51:14.471Z,4.70
2023-03-16T21:53:43.234Z,4.70
2023-03-16T21:56:16.012Z,4.60
2023-03-16T21:58:44.182Z,4.60
2023-03-16T22:01:23.430Z,4.60
2023-03-16T22:03:54.905Z,4.60
2023-03-16T22:06:27.787Z,4.50
2023-03-16T22:08:57.427Z,4.50
2023-03-16T22:11:29.115Z,4.50
2023-03-16T22:13:59.110Z,4.50
2023-03-16T22:16:30.796Z,4.40
2023-03-16T22:19:00.365Z,4.40
2023-03-16T22:21:34.248Z,4.40
2023-03-16T22:24:05.278Z,4.40
2023-03-16T22:26:33.460Z,4.40
2023-03-16T22:29:03.187Z,4.40
2023-03-16T22:31:35.055Z,4.40
2023-03-16T22:34:06.049Z,4.40
2023-03-16T22:36:35.820Z,4.40
2023-03-16T22:39:12.207Z,4.30
2023-03-16T22:41:40.150Z,4.30
2023-03-16T22:44:19.317Z,4.30
2023-03-16T22:46:48.993Z,4.30
2023-03-16T22:49:23.663Z,4.30
2023-03-16T22:51:55.690Z,4.30
2023-03-16T22:54:28.375Z,4.30
2023-03-16T22:56:56.445Z,4.30
2023-03-16T22:59:27.712Z,4.20
2023-03-16T23:01:56.450Z,4.30
2023-03-16T23:04:30.210Z,4.20
2023-03-16T23:06:58.438Z,4.20
2023-03-16T23:09:26.776Z,4.30
2023-03-16T23:11:57.114Z,4.20
2023-03-16T23:14:29.849Z,4.20
2023-03-16T23:16:57.849Z,4.20
2023-03-16T23:19:30.688Z,4.20
2023-03-16T23:22:03.268Z,4.30
2023-03-16T23:24:31.565Z,4.20
2023-03-16T23:27:00.411Z,4.20
2023-03-16T23:29:29.986Z,4.20
2023-03-16T23:31:58.201Z,4.20
2023-03-16T23:34:27.625Z,4.20
2023-03-16T23:36:55.658Z,4.10
2023-03-16T23:39:23.738Z,4.10
2023-03-16T23:41:53.271Z,4.10
2023-03-16T23:44:26.513Z,4.10
2023-03-16T23:46:55.356Z,4.00
2023-03-16T23:49:30.024Z,4.10
2023-03-16T23:52:01.485Z,4.00
2023-03-16T23:54:32.018Z,4.10
2023-03-16T23:57:00.168Z,4.00
2023-03-16T23:59:28.674Z,4.10
